BCY60B EGPH-EGLC
Flight info
| Callsign | BCY60B |
|---|---|
| Flight time | 1h 22m |
| Altitude | 31000 |
| Route | GOSAM P600 FENIK L612 NAVSO DCT AKOMU DCT VAMEB UL612 LISTO |
| Aircraft | RJ85/M-SDFGIRWY/LB1 |
Departure
| Time | 2026-04-21 12:57 |
|---|---|
| Airport | Edinburgh Airport (EGPH) |
Arrival
| Time | 2026-04-21 14:19 |
|---|---|
| Airport | London City Airport (EGLC) |
| Time | Latitude | Longitude | Altitude | Speed | Heading |
|---|---|---|---|---|---|
| 2026-04-21 12:41 | 55.94858 | -3.35942 | 114 ft | 0 kts | 208° |
| 2026-04-21 12:48 | 55.94859 | -3.35941 | 114 ft | 3 kts | 208° |
| 2026-04-21 12:48 | 55.94876 | -3.35925 | 116 ft | 3 kts | 208° |
| 2026-04-21 12:48 | 55.94892 | -3.35909 | 115 ft | 3 kts | 208° |
| 2026-04-21 12:49 | 55.94908 | -3.35894 | 115 ft | 3 kts | 208° |
| 2026-04-21 12:49 | 55.94924 | -3.35876 | 114 ft | 3 kts | 225° |
| 2026-04-21 12:49 | 55.94934 | -3.35849 | 116 ft | 3 kts | 250° |
| 2026-04-21 12:49 | 55.94937 | -3.35817 | 115 ft | 3 kts | 274° |
| 2026-04-21 12:50 | 55.94937 | -3.35812 | 115 ft | 0 kts | 276° |
| 2026-04-21 12:52 | 55.94938 | -3.35823 | 115 ft | 3 kts | 281° |
| 2026-04-21 12:52 | 55.94959 | -3.35865 | 113 ft | 7 kts | 347° |
| 2026-04-21 12:52 | 55.95016 | -3.35833 | 116 ft | 10 kts | 12° |
| 2026-04-21 12:53 | 55.95074 | -3.35933 | 116 ft | 15 kts | 297° |
| 2026-04-21 12:53 | 55.95120 | -3.36141 | 115 ft | 20 kts | 289° |
| 2026-04-21 12:53 | 55.95105 | -3.36369 | 116 ft | 19 kts | 238° |
| 2026-04-21 12:53 | 55.95039 | -3.36563 | 116 ft | 18 kts | 238° |
| 2026-04-21 12:54 | 55.94972 | -3.36762 | 115 ft | 19 kts | 239° |
| 2026-04-21 12:54 | 55.94901 | -3.36970 | 115 ft | 20 kts | 239° |
| 2026-04-21 12:54 | 55.94828 | -3.37187 | 115 ft | 21 kts | 239° |
| 2026-04-21 12:54 | 55.94751 | -3.37413 | 116 ft | 22 kts | 239° |
| 2026-04-21 12:55 | 55.94674 | -3.37643 | 116 ft | 22 kts | 238° |
| 2026-04-21 12:55 | 55.94593 | -3.37881 | 116 ft | 23 kts | 239° |
| 2026-04-21 12:55 | 55.94511 | -3.38121 | 115 ft | 22 kts | 239° |
| 2026-04-21 12:55 | 55.94435 | -3.38345 | 115 ft | 20 kts | 239° |
| 2026-04-21 12:56 | 55.94362 | -3.38560 | 115 ft | 21 kts | 239° |
| 2026-04-21 12:56 | 55.94289 | -3.38774 | 116 ft | 19 kts | 240° |
| 2026-04-21 12:56 | 55.94344 | -3.38932 | 115 ft | 17 kts | 330° |
| 2026-04-21 12:56 | 55.94442 | -3.38895 | 114 ft | 17 kts | 58° |
| 2026-04-21 12:57 | 55.94559 | -3.38550 | 111 ft | 63 kts | 59° |
| 2026-04-21 12:57 | 55.94900 | -3.37545 | 130 ft | 120 kts | 59° |
| 2026-04-21 12:57 | 55.95337 | -3.36243 | 679 ft | 122 kts | 59° |
| 2026-04-21 12:57 | 55.95775 | -3.34947 | 1435 ft | 121 kts | 60° |
| 2026-04-21 12:58 | 55.96325 | -3.33789 | 2107 ft | 125 kts | 44° |
| 2026-04-21 12:58 | 55.96990 | -3.32718 | 2561 ft | 138 kts | 47° |
| 2026-04-21 12:58 | 55.97772 | -3.31444 | 2780 ft | 166 kts | 47° |
| 2026-04-21 12:58 | 55.98678 | -3.29950 | 3006 ft | 190 kts | 46° |
| 2026-04-21 12:59 | 55.99819 | -3.28663 | 3689 ft | 205 kts | 17° |
| 2026-04-21 12:59 | 56.01308 | -3.29059 | 4199 ft | 234 kts | 334° |
| 2026-04-21 12:59 | 56.02459 | -3.31156 | 4873 ft | 249 kts | 298° |
| 2026-04-21 12:59 | 56.02837 | -3.34234 | 5499 ft | 263 kts | 265° |
| 2026-04-21 13:00 | 56.02536 | -3.37546 | 6109 ft | 276 kts | 259° |
| 2026-04-21 13:00 | 56.02316 | -3.41027 | 6788 ft | 288 kts | 265° |
| 2026-04-21 13:00 | 56.02046 | -3.44597 | 7632 ft | 291 kts | 253° |
| 2026-04-21 13:00 | 56.01463 | -3.48080 | 8552 ft | 293 kts | 250° |
| 2026-04-21 13:01 | 56.00858 | -3.51600 | 9463 ft | 297 kts | 250° |
| 2026-04-21 13:01 | 56.00262 | -3.55148 | 10381 ft | 301 kts | 250° |
| 2026-04-21 13:01 | 55.99670 | -3.58801 | 10908 ft | 317 kts | 251° |
| 2026-04-21 13:01 | 55.99070 | -3.62673 | 11398 ft | 329 kts | 252° |
| 2026-04-21 13:02 | 55.98471 | -3.66667 | 12044 ft | 333 kts | 252° |
| 2026-04-21 13:02 | 55.97887 | -3.70709 | 12679 ft | 337 kts | 253° |
| 2026-04-21 13:02 | 55.96715 | -3.78905 | 13850 ft | 344 kts | 253° |
| 2026-04-21 13:03 | 55.96124 | -3.83072 | 14391 ft | 347 kts | 253° |
| 2026-04-21 13:03 | 55.95728 | -3.85858 | 14694 ft | 349 kts | 253° |
| 2026-04-21 13:03 | 55.94929 | -3.91461 | 15311 ft | 352 kts | 253° |
| 2026-04-21 13:03 | 55.94287 | -3.95698 | 15727 ft | 354 kts | 249° |
| 2026-04-21 13:04 | 55.93130 | -3.99503 | 16098 ft | 347 kts | 223° |
| 2026-04-21 13:04 | 55.91298 | -4.02169 | 16488 ft | 343 kts | 210° |
| 2026-04-21 13:04 | 55.89333 | -4.04626 | 16884 ft | 346 kts | 211° |
| 2026-04-21 13:04 | 55.87387 | -4.07181 | 17277 ft | 349 kts | 213° |
| 2026-04-21 13:05 | 55.85460 | -4.09847 | 17688 ft | 351 kts | 214° |
| 2026-04-21 13:05 | 55.83561 | -4.12619 | 18095 ft | 354 kts | 216° |
| 2026-04-21 13:05 | 55.81679 | -4.15474 | 18502 ft | 357 kts | 216° |
| 2026-04-21 13:05 | 55.79798 | -4.18404 | 18892 ft | 359 kts | 217° |
| 2026-04-21 13:06 | 55.77888 | -4.21282 | 19250 ft | 359 kts | 213° |
| 2026-04-21 13:06 | 55.75879 | -4.23912 | 19597 ft | 360 kts | 211° |
| 2026-04-21 13:06 | 55.73755 | -4.26262 | 19930 ft | 356 kts | 197° |
| 2026-04-21 13:06 | 55.71369 | -4.27021 | 20273 ft | 344 kts | 171° |
| 2026-04-21 13:07 | 55.69064 | -4.26107 | 20606 ft | 339 kts | 157° |
| 2026-04-21 13:07 | 55.66875 | -4.24533 | 20942 ft | 339 kts | 152° |
| 2026-04-21 13:07 | 55.64785 | -4.22695 | 21281 ft | 340 kts | 148° |
| 2026-04-21 13:07 | 55.62704 | -4.20662 | 21605 ft | 341 kts | 147° |
| 2026-04-21 13:08 | 55.60630 | -4.18546 | 21929 ft | 343 kts | 147° |
| 2026-04-21 13:08 | 55.58555 | -4.16433 | 22233 ft | 345 kts | 147° |
| 2026-04-21 13:08 | 55.56462 | -4.14308 | 22553 ft | 348 kts | 147° |
| 2026-04-21 13:08 | 55.54367 | -4.12231 | 22857 ft | 349 kts | 147° |
| 2026-04-21 13:09 | 55.52232 | -4.10131 | 23173 ft | 351 kts | 148° |
| 2026-04-21 13:09 | 55.50784 | -4.08712 | 23364 ft | 352 kts | 148° |
| 2026-04-21 13:09 | 55.47932 | -4.05922 | 23752 ft | 355 kts | 148° |
| 2026-04-21 13:09 | 55.45766 | -4.03807 | 24050 ft | 356 kts | 148° |
| 2026-04-21 13:10 | 55.43588 | -4.01684 | 24292 ft | 358 kts | 148° |
| 2026-04-21 13:10 | 55.41421 | -3.99594 | 24522 ft | 360 kts | 148° |
| 2026-04-21 13:10 | 55.39213 | -3.97495 | 24743 ft | 361 kts | 149° |
| 2026-04-21 13:10 | 55.36996 | -3.95390 | 24985 ft | 362 kts | 149° |
| 2026-04-21 13:11 | 55.34784 | -3.93272 | 25287 ft | 361 kts | 148° |
| 2026-04-21 13:11 | 55.32578 | -3.91143 | 25589 ft | 361 kts | 149° |
| 2026-04-21 13:11 | 55.30377 | -3.89031 | 25873 ft | 360 kts | 149° |
| 2026-04-21 13:11 | 55.28169 | -3.86910 | 26174 ft | 360 kts | 149° |
| 2026-04-21 13:12 | 55.25978 | -3.84802 | 26454 ft | 359 kts | 149° |
| 2026-04-21 13:12 | 55.23812 | -3.82713 | 26734 ft | 359 kts | 149° |
| 2026-04-21 13:12 | 55.21619 | -3.80608 | 27014 ft | 358 kts | 150° |
| 2026-04-21 13:12 | 55.19400 | -3.78609 | 27288 ft | 358 kts | 151° |
| 2026-04-21 13:13 | 55.17162 | -3.76687 | 27556 ft | 358 kts | 152° |
| 2026-04-21 13:13 | 55.14910 | -3.74798 | 27832 ft | 358 kts | 153° |
| 2026-04-21 13:13 | 55.12665 | -3.72918 | 28089 ft | 357 kts | 152° |
| 2026-04-21 13:13 | 55.10424 | -3.71021 | 28358 ft | 356 kts | 153° |
| 2026-04-21 13:14 | 55.08198 | -3.69115 | 28618 ft | 356 kts | 153° |
| 2026-04-21 13:14 | 55.05996 | -3.67229 | 28834 ft | 356 kts | 153° |
| 2026-04-21 13:14 | 55.03763 | -3.65327 | 29098 ft | 356 kts | 153° |
| 2026-04-21 13:14 | 55.01537 | -3.63433 | 29273 ft | 357 kts | 153° |
| 2026-04-21 13:15 | 54.99297 | -3.61524 | 29452 ft | 358 kts | 153° |
| 2026-04-21 13:15 | 54.97052 | -3.59599 | 29604 ft | 360 kts | 153° |
| 2026-04-21 13:15 | 54.94816 | -3.57697 | 29753 ft | 362 kts | 154° |
| 2026-04-21 13:15 | 54.92547 | -3.55782 | 29927 ft | 363 kts | 154° |
| 2026-04-21 13:16 | 54.90268 | -3.53855 | 30078 ft | 364 kts | 154° |
| 2026-04-21 13:16 | 54.87986 | -3.51912 | 30221 ft | 366 kts | 154° |
| 2026-04-21 13:16 | 54.85695 | -3.49963 | 30373 ft | 367 kts | 155° |
| 2026-04-21 13:16 | 54.83384 | -3.48021 | 30504 ft | 369 kts | 155° |
| 2026-04-21 13:17 | 54.81097 | -3.46102 | 30640 ft | 369 kts | 155° |
| 2026-04-21 13:17 | 54.78776 | -3.44148 | 30765 ft | 371 kts | 155° |
| 2026-04-21 13:17 | 54.76454 | -3.42185 | 30889 ft | 372 kts | 155° |
| 2026-04-21 13:17 | 54.74120 | -3.40207 | 31006 ft | 373 kts | 155° |
| 2026-04-21 13:18 | 54.69456 | -3.36280 | 31241 ft | 376 kts | 156° |
| 2026-04-21 13:18 | 54.67090 | -3.34301 | 31351 ft | 377 kts | 156° |
| 2026-04-21 13:18 | 54.64720 | -3.32319 | 31426 ft | 379 kts | 156° |
| 2026-04-21 13:19 | 54.60735 | -3.28990 | 31459 ft | 386 kts | 156° |
| 2026-04-21 13:19 | 54.55840 | -3.24931 | 31464 ft | 394 kts | 157° |
| 2026-04-21 13:20 | 54.50831 | -3.20765 | 31455 ft | 403 kts | 157° |
| 2026-04-21 13:20 | 54.45756 | -3.16571 | 31454 ft | 411 kts | 156° |
| 2026-04-21 13:21 | 54.40556 | -3.12253 | 31455 ft | 418 kts | 157° |
| 2026-04-21 13:21 | 54.35271 | -3.07911 | 31445 ft | 423 kts | 157° |
| 2026-04-21 13:22 | 54.29922 | -3.03516 | 31437 ft | 427 kts | 156° |
| 2026-04-21 13:22 | 54.24578 | -2.99118 | 31440 ft | 429 kts | 157° |
| 2026-04-21 13:23 | 54.19168 | -2.94710 | 31437 ft | 431 kts | 157° |
| 2026-04-21 13:23 | 54.13681 | -2.90463 | 31423 ft | 432 kts | 159° |
| 2026-04-21 13:24 | 54.08135 | -2.86428 | 31422 ft | 433 kts | 160° |
| 2026-04-21 13:24 | 54.02600 | -2.82441 | 31423 ft | 434 kts | 160° |
| 2026-04-21 13:25 | 53.97032 | -2.78392 | 31413 ft | 436 kts | 160° |
| 2026-04-21 13:25 | 53.91471 | -2.74348 | 31414 ft | 437 kts | 160° |
| 2026-04-21 13:26 | 53.85848 | -2.70332 | 31410 ft | 438 kts | 160° |
| 2026-04-21 13:26 | 53.80220 | -2.66282 | 31402 ft | 439 kts | 160° |
| 2026-04-21 13:27 | 53.74574 | -2.62251 | 31404 ft | 440 kts | 160° |
| 2026-04-21 13:27 | 53.68949 | -2.58234 | 31403 ft | 441 kts | 161° |
| 2026-04-21 13:28 | 53.63261 | -2.54225 | 31405 ft | 443 kts | 160° |
| 2026-04-21 13:28 | 53.57566 | -2.50136 | 31402 ft | 445 kts | 161° |
| 2026-04-21 13:29 | 53.51882 | -2.46108 | 31394 ft | 446 kts | 161° |
| 2026-04-21 13:29 | 53.46138 | -2.42035 | 31399 ft | 448 kts | 161° |
| 2026-04-21 13:30 | 53.40384 | -2.37944 | 31398 ft | 449 kts | 161° |
| 2026-04-21 13:30 | 53.34622 | -2.33929 | 31399 ft | 450 kts | 162° |
| 2026-04-21 13:31 | 53.28831 | -2.29864 | 31400 ft | 452 kts | 161° |
| 2026-04-21 13:31 | 53.22990 | -2.25805 | 31396 ft | 454 kts | 162° |
| 2026-04-21 13:32 | 53.17174 | -2.21779 | 31397 ft | 456 kts | 161° |
| 2026-04-21 13:32 | 53.11573 | -2.16650 | 31391 ft | 463 kts | 149° |
| 2026-04-21 13:33 | 53.06352 | -2.10308 | 31381 ft | 465 kts | 146° |
| 2026-04-21 13:33 | 53.01208 | -2.03815 | 31371 ft | 466 kts | 146° |
| 2026-04-21 13:34 | 52.95983 | -1.97402 | 31373 ft | 467 kts | 147° |
| 2026-04-21 13:34 | 52.90747 | -1.91081 | 31369 ft | 469 kts | 147° |
| 2026-04-21 13:35 | 52.85457 | -1.84723 | 31366 ft | 470 kts | 147° |
| 2026-04-21 13:35 | 52.80148 | -1.78363 | 31370 ft | 470 kts | 147° |
| 2026-04-21 13:36 | 52.74832 | -1.72146 | 31316 ft | 470 kts | 150° |
| 2026-04-21 13:36 | 52.69160 | -1.66814 | 31296 ft | 468 kts | 157° |
| 2026-04-21 13:37 | 52.63330 | -1.61962 | 31281 ft | 469 kts | 157° |
| 2026-04-21 13:37 | 52.57502 | -1.57078 | 31276 ft | 470 kts | 157° |
| 2026-04-21 13:38 | 52.51695 | -1.52086 | 31276 ft | 470 kts | 156° |
| 2026-04-21 13:38 | 52.45930 | -1.47147 | 31360 ft | 470 kts | 157° |
| 2026-04-21 13:39 | 52.40107 | -1.42239 | 31373 ft | 470 kts | 156° |
| 2026-04-21 13:39 | 52.34290 | -1.37243 | 31385 ft | 472 kts | 154° |
| 2026-04-21 13:40 | 52.28889 | -1.31170 | 31395 ft | 476 kts | 142° |
| 2026-04-21 13:40 | 52.24243 | -1.23386 | 31401 ft | 480 kts | 131° |
| 2026-04-21 13:41 | 52.20032 | -1.14891 | 31386 ft | 480 kts | 129° |
| 2026-04-21 13:41 | 52.15902 | -1.06323 | 31364 ft | 480 kts | 120° |
| 2026-04-21 13:42 | 52.14628 | -1.01345 | 31378 ft | 475 kts | 102° |
| 2026-04-21 13:42 | 52.13829 | -0.96184 | 31346 ft | 475 kts | 101° |
| 2026-04-21 13:42 | 52.12933 | -0.85589 | 31352 ft | 470 kts | 86° |
| 2026-04-21 13:43 | 52.12994 | -0.74999 | 31351 ft | 467 kts | 83° |
| 2026-04-21 13:43 | 52.13175 | -0.64428 | 31352 ft | 466 kts | 83° |
| 2026-04-21 13:44 | 52.13256 | -0.53933 | 31347 ft | 466 kts | 84° |
| 2026-04-21 13:44 | 52.13275 | -0.48616 | 31020 ft | 472 kts | 84° |
| 2026-04-21 13:44 | 52.13288 | -0.43244 | 30323 ft | 475 kts | 84° |
| 2026-04-21 13:45 | 52.13295 | -0.37877 | 29525 ft | 473 kts | 85° |
| 2026-04-21 13:45 | 52.13296 | -0.32506 | 28759 ft | 471 kts | 85° |
| 2026-04-21 13:45 | 52.13294 | -0.27210 | 28012 ft | 466 kts | 86° |
| 2026-04-21 13:45 | 52.13305 | -0.21962 | 27283 ft | 461 kts | 86° |
| 2026-04-21 13:46 | 52.13308 | -0.16788 | 26584 ft | 455 kts | 87° |
| 2026-04-21 13:46 | 52.13315 | -0.11727 | 25882 ft | 438 kts | 88° |
| 2026-04-21 13:46 | 52.13311 | -0.06864 | 25205 ft | 426 kts | 88° |
| 2026-04-21 13:46 | 52.13312 | -0.02058 | 24528 ft | 423 kts | 88° |
| 2026-04-21 13:47 | 52.13317 | 0.02694 | 23864 ft | 418 kts | 89° |
| 2026-04-21 13:47 | 52.13316 | 0.07404 | 23085 ft | 411 kts | 89° |
| 2026-04-21 13:47 | 52.13288 | 0.11952 | 22349 ft | 394 kts | 91° |
| 2026-04-21 13:47 | 52.13138 | 0.16346 | 21957 ft | 383 kts | 94° |
| 2026-04-21 13:48 | 52.12868 | 0.20606 | 21550 ft | 374 kts | 96° |
| 2026-04-21 13:48 | 52.12538 | 0.24752 | 21154 ft | 366 kts | 97° |
| 2026-04-21 13:48 | 52.12183 | 0.28839 | 20768 ft | 364 kts | 97° |
| 2026-04-21 13:48 | 52.11823 | 0.32892 | 20387 ft | 360 kts | 97° |
| 2026-04-21 13:49 | 52.11473 | 0.36905 | 20009 ft | 356 kts | 97° |
| 2026-04-21 13:49 | 52.11132 | 0.40885 | 19636 ft | 353 kts | 97° |
| 2026-04-21 13:49 | 52.10797 | 0.44835 | 19270 ft | 350 kts | 97° |
| 2026-04-21 13:49 | 52.10467 | 0.48746 | 18901 ft | 347 kts | 97° |
| 2026-04-21 13:50 | 52.10099 | 0.52620 | 18541 ft | 346 kts | 99° |
| 2026-04-21 13:50 | 52.09679 | 0.56446 | 18128 ft | 342 kts | 99° |
| 2026-04-21 13:50 | 52.09240 | 0.60237 | 17727 ft | 339 kts | 99° |
| 2026-04-21 13:50 | 52.08809 | 0.63949 | 17368 ft | 336 kts | 99° |
| 2026-04-21 13:51 | 52.08387 | 0.67681 | 17102 ft | 332 kts | 99° |
| 2026-04-21 13:51 | 52.07983 | 0.71311 | 16837 ft | 319 kts | 99° |
| 2026-04-21 13:51 | 52.07595 | 0.74813 | 16567 ft | 309 kts | 99° |
| 2026-04-21 13:51 | 52.07216 | 0.78200 | 16297 ft | 301 kts | 99° |
| 2026-04-21 13:52 | 52.06850 | 0.81469 | 16045 ft | 294 kts | 99° |
| 2026-04-21 13:52 | 52.06345 | 0.84675 | 15798 ft | 293 kts | 110° |
| 2026-04-21 13:52 | 52.05463 | 0.87665 | 15577 ft | 293 kts | 115° |
| 2026-04-21 13:52 | 52.04505 | 0.90579 | 15388 ft | 292 kts | 116° |
| 2026-04-21 13:53 | 52.03527 | 0.93472 | 15187 ft | 291 kts | 116° |
| 2026-04-21 13:53 | 52.02546 | 0.96349 | 15009 ft | 290 kts | 116° |
| 2026-04-21 13:53 | 52.01566 | 0.99230 | 14820 ft | 290 kts | 116° |
| 2026-04-21 13:53 | 52.00613 | 1.02057 | 14644 ft | 289 kts | 116° |
| 2026-04-21 13:54 | 51.99661 | 1.04927 | 14455 ft | 288 kts | 115° |
| 2026-04-21 13:54 | 51.98714 | 1.07794 | 14272 ft | 287 kts | 115° |
| 2026-04-21 13:54 | 51.97772 | 1.10635 | 14091 ft | 287 kts | 115° |
| 2026-04-21 13:54 | 51.96830 | 1.13488 | 13884 ft | 286 kts | 115° |
| 2026-04-21 13:55 | 51.95894 | 1.16325 | 13649 ft | 284 kts | 115° |
| 2026-04-21 13:55 | 51.94961 | 1.19150 | 13409 ft | 283 kts | 115° |
| 2026-04-21 13:55 | 51.94031 | 1.21964 | 13160 ft | 282 kts | 115° |
| 2026-04-21 13:55 | 51.93117 | 1.24730 | 12922 ft | 281 kts | 115° |
| 2026-04-21 13:56 | 51.92194 | 1.27521 | 12690 ft | 280 kts | 115° |
| 2026-04-21 13:56 | 51.91270 | 1.30303 | 12448 ft | 279 kts | 116° |
| 2026-04-21 13:56 | 51.90078 | 1.32778 | 12212 ft | 284 kts | 140° |
| 2026-04-21 13:56 | 51.88296 | 1.34166 | 11905 ft | 290 kts | 155° |
| 2026-04-21 13:57 | 51.86393 | 1.35264 | 11535 ft | 289 kts | 156° |
| 2026-04-21 13:57 | 51.84493 | 1.36329 | 11156 ft | 288 kts | 156° |
| 2026-04-21 13:57 | 51.82594 | 1.37386 | 10785 ft | 288 kts | 156° |
| 2026-04-21 13:57 | 51.80707 | 1.38448 | 10420 ft | 287 kts | 156° |
| 2026-04-21 13:58 | 51.78836 | 1.39528 | 10108 ft | 283 kts | 156° |
| 2026-04-21 13:58 | 51.77011 | 1.40609 | 9827 ft | 275 kts | 155° |
| 2026-04-21 13:58 | 51.75234 | 1.41685 | 9549 ft | 269 kts | 155° |
| 2026-04-21 13:58 | 51.73463 | 1.42508 | 9377 ft | 265 kts | 173° |
| 2026-04-21 13:59 | 51.71711 | 1.41904 | 9351 ft | 260 kts | 199° |
| 2026-04-21 13:59 | 51.70085 | 1.40718 | 9322 ft | 252 kts | 201° |
| 2026-04-21 13:59 | 51.68505 | 1.39511 | 9321 ft | 251 kts | 201° |
| 2026-04-21 13:59 | 51.66951 | 1.38292 | 9324 ft | 251 kts | 202° |
| 2026-04-21 14:00 | 51.65379 | 1.37054 | 9330 ft | 251 kts | 201° |
| 2026-04-21 14:00 | 51.63807 | 1.35831 | 9332 ft | 251 kts | 201° |
| 2026-04-21 14:00 | 51.62762 | 1.35035 | 9327 ft | 251 kts | 201° |
| 2026-04-21 14:00 | 51.61181 | 1.33855 | 9340 ft | 250 kts | 200° |
| 2026-04-21 14:01 | 51.59618 | 1.32604 | 9323 ft | 253 kts | 212° |
| 2026-04-21 14:01 | 51.58463 | 1.30433 | 9349 ft | 259 kts | 237° |
| 2026-04-21 14:01 | 51.57583 | 1.27905 | 9344 ft | 259 kts | 241° |
| 2026-04-21 14:01 | 51.56782 | 1.25303 | 9331 ft | 260 kts | 243° |
| 2026-04-21 14:02 | 51.56030 | 1.22693 | 9327 ft | 260 kts | 244° |
| 2026-04-21 14:02 | 51.55296 | 1.20042 | 9330 ft | 259 kts | 245° |
| 2026-04-21 14:02 | 51.54569 | 1.17368 | 9237 ft | 262 kts | 245° |
| 2026-04-21 14:03 | 51.53073 | 1.11891 | 8525 ft | 271 kts | 245° |
| 2026-04-21 14:03 | 51.52300 | 1.09105 | 8146 ft | 274 kts | 244° |
| 2026-04-21 14:03 | 51.51508 | 1.06311 | 7763 ft | 276 kts | 244° |
| 2026-04-21 14:03 | 51.50713 | 1.03531 | 7399 ft | 278 kts | 244° |
| 2026-04-21 14:04 | 51.49900 | 1.00708 | 7031 ft | 279 kts | 244° |
| 2026-04-21 14:04 | 51.49082 | 0.97865 | 6656 ft | 281 kts | 244° |
| 2026-04-21 14:04 | 51.48268 | 0.95007 | 6272 ft | 281 kts | 246° |
| 2026-04-21 14:04 | 51.47807 | 0.92012 | 6092 ft | 273 kts | 264° |
| 2026-04-21 14:05 | 51.47686 | 0.89027 | 6029 ft | 262 kts | 269° |
| 2026-04-21 14:05 | 51.47670 | 0.86165 | 6011 ft | 252 kts | 272° |
| 2026-04-21 14:05 | 51.47719 | 0.83362 | 6006 ft | 251 kts | 274° |
| 2026-04-21 14:05 | 51.47807 | 0.80554 | 6006 ft | 251 kts | 275° |
| 2026-04-21 14:06 | 51.47912 | 0.77799 | 6005 ft | 250 kts | 275° |
| 2026-04-21 14:06 | 51.47988 | 0.75925 | 6010 ft | 249 kts | 275° |
| 2026-04-21 14:06 | 51.48139 | 0.72253 | 6012 ft | 250 kts | 275° |
| 2026-04-21 14:06 | 51.48257 | 0.69460 | 5954 ft | 252 kts | 275° |
| 2026-04-21 14:07 | 51.48378 | 0.66633 | 5709 ft | 255 kts | 275° |
| 2026-04-21 14:07 | 51.48495 | 0.63794 | 5455 ft | 255 kts | 275° |
| 2026-04-21 14:07 | 51.48606 | 0.60950 | 5202 ft | 255 kts | 274° |
| 2026-04-21 14:07 | 51.48710 | 0.58111 | 4948 ft | 255 kts | 274° |
| 2026-04-21 14:08 | 51.48810 | 0.55266 | 4681 ft | 255 kts | 274° |
| 2026-04-21 14:08 | 51.48905 | 0.52420 | 4427 ft | 255 kts | 275° |
| 2026-04-21 14:08 | 51.49007 | 0.49579 | 4174 ft | 255 kts | 275° |
| 2026-04-21 14:08 | 51.48899 | 0.46768 | 3956 ft | 253 kts | 251° |
| 2026-04-21 14:09 | 51.48181 | 0.44212 | 3783 ft | 250 kts | 241° |
| 2026-04-21 14:09 | 51.47360 | 0.41760 | 3643 ft | 249 kts | 239° |
| 2026-04-21 14:09 | 51.46490 | 0.39330 | 3491 ft | 247 kts | 238° |
| 2026-04-21 14:09 | 51.45603 | 0.36963 | 3333 ft | 248 kts | 237° |
| 2026-04-21 14:10 | 51.44716 | 0.34638 | 3197 ft | 246 kts | 237° |
| 2026-04-21 14:10 | 51.43817 | 0.32282 | 3057 ft | 243 kts | 237° |
| 2026-04-21 14:10 | 51.43125 | 0.29873 | 3032 ft | 235 kts | 263° |
| 2026-04-21 14:10 | 51.43055 | 0.27312 | 3023 ft | 227 kts | 271° |
| 2026-04-21 14:11 | 51.43071 | 0.24819 | 3003 ft | 221 kts | 274° |
| 2026-04-21 14:11 | 51.43130 | 0.22370 | 3008 ft | 220 kts | 275° |
| 2026-04-21 14:11 | 51.43215 | 0.19952 | 3021 ft | 219 kts | 276° |
| 2026-04-21 14:11 | 51.43327 | 0.17506 | 2909 ft | 222 kts | 278° |
| 2026-04-21 14:12 | 51.43453 | 0.15037 | 2756 ft | 224 kts | 277° |
| 2026-04-21 14:12 | 51.43570 | 0.12520 | 2570 ft | 227 kts | 276° |
| 2026-04-21 14:12 | 51.43665 | 0.09971 | 2356 ft | 230 kts | 276° |
| 2026-04-21 14:12 | 51.43751 | 0.07388 | 2151 ft | 233 kts | 276° |
| 2026-04-21 14:13 | 51.43831 | 0.04839 | 2066 ft | 229 kts | 275° |
| 2026-04-21 14:13 | 51.43889 | 0.03123 | 2041 ft | 225 kts | 275° |
| 2026-04-21 14:13 | 51.43990 | -0.00126 | 2021 ft | 212 kts | 275° |
| 2026-04-21 14:13 | 51.44047 | -0.02383 | 2068 ft | 191 kts | 276° |
| 2026-04-21 14:14 | 51.44103 | -0.04467 | 2074 ft | 185 kts | 276° |
| 2026-04-21 14:14 | 51.44167 | -0.06508 | 2057 ft | 185 kts | 277° |
| 2026-04-21 14:14 | 51.44290 | -0.08541 | 2004 ft | 181 kts | 293° |
| 2026-04-21 14:14 | 51.45021 | -0.10022 | 1996 ft | 166 kts | 331° |
| 2026-04-21 14:15 | 51.45998 | -0.10961 | 1998 ft | 161 kts | 346° |
| 2026-04-21 14:15 | 51.47046 | -0.11538 | 1997 ft | 158 kts | 354° |
| 2026-04-21 14:15 | 51.48113 | -0.11944 | 2001 ft | 156 kts | 358° |
| 2026-04-21 14:15 | 51.49097 | -0.11674 | 2035 ft | 140 kts | 40° |
| 2026-04-21 14:16 | 51.49807 | -0.10738 | 2054 ft | 123 kts | 46° |
| 2026-04-21 14:16 | 51.50378 | -0.09814 | 2028 ft | 110 kts | 52° |
| 2026-04-21 14:16 | 51.50814 | -0.08888 | 1973 ft | 102 kts | 74° |
| 2026-04-21 14:16 | 51.50723 | -0.07748 | 1993 ft | 104 kts | 89° |
| 2026-04-21 14:17 | 51.50831 | -0.06613 | 2043 ft | 103 kts | 84° |
| 2026-04-21 14:17 | 51.50852 | -0.05448 | 2077 ft | 105 kts | 86° |
| 2026-04-21 14:17 | 51.50829 | -0.04269 | 2061 ft | 106 kts | 88° |
| 2026-04-21 14:17 | 51.50797 | -0.03078 | 1775 ft | 109 kts | 89° |
| 2026-04-21 14:18 | 51.50765 | -0.01876 | 1470 ft | 106 kts | 88° |
| 2026-04-21 14:18 | 51.50724 | -0.00694 | 1209 ft | 107 kts | 89° |
| 2026-04-21 14:18 | 51.50682 | 0.00488 | 910 ft | 104 kts | 90° |
| 2026-04-21 14:18 | 51.50646 | 0.01648 | 695 ft | 105 kts | 88° |
| 2026-04-21 14:19 | 51.50605 | 0.02861 | 413 ft | 112 kts | 88° |
| 2026-04-21 14:19 | 51.50566 | 0.04116 | 143 ft | 112 kts | 89° |
| 2026-04-21 14:19 | 51.50531 | 0.05303 | 27 ft | 93 kts | 92° |
| 2026-04-21 14:19 | 51.50506 | 0.06051 | 25 ft | 35 kts | 92° |
| 2026-04-21 14:20 | 51.50491 | 0.06301 | 25 ft | 14 kts | 119° |
| 2026-04-21 14:20 | 51.50419 | 0.06322 | 26 ft | 11 kts | 239° |
| 2026-04-21 14:20 | 51.50417 | 0.06199 | 25 ft | 12 kts | 272° |
| 2026-04-21 14:20 | 51.50422 | 0.06061 | 25 ft | 13 kts | 274° |
| 2026-04-21 14:21 | 51.50427 | 0.05908 | 25 ft | 14 kts | 272° |
| 2026-04-21 14:21 | 51.50432 | 0.05741 | 25 ft | 16 kts | 273° |
| 2026-04-21 14:21 | 51.50437 | 0.05563 | 25 ft | 16 kts | 273° |
| 2026-04-21 14:21 | 51.50443 | 0.05392 | 25 ft | 15 kts | 272° |
| 2026-04-21 14:22 | 51.50448 | 0.05231 | 26 ft | 14 kts | 273° |
| 2026-04-21 14:22 | 51.50453 | 0.05080 | 25 ft | 13 kts | 280° |
| 2026-04-21 14:22 | 51.50464 | 0.04935 | 25 ft | 13 kts | 272° |
| 2026-04-21 14:22 | 51.50447 | 0.04838 | 25 ft | 8 kts | 180° |
| 2026-04-21 14:23 | 51.50437 | 0.04827 | 26 ft | 3 kts | 276° |
| 2026-04-21 14:23 | 51.50441 | 0.04818 | 26 ft | 0 kts | 316° |